sensor_id;sensor_type;location;lat;lon;timestamp;pressure;altitude;pressure_sealevel;temperature;humidity
61035;BME280;46916;40.564;-7.958;2022-09-09T00:00:16;97686.97;;;20.12;99.53
61035;BME280;46916;40.564;-7.958;2022-09-09T00:02:26;97693.28;;;20.11;99.51
61035;BME280;46916;40.564;-7.958;2022-09-09T00:06:42;97686.97;;;20.12;99.55
61035;BME280;46916;40.564;-7.958;2022-09-09T00:09:11;97690.63;;;20.11;99.26
61035;BME280;46916;40.564;-7.958;2022-09-09T00:11:19;97688.78;;;20.11;99.16
61035;BME280;46916;40.564;-7.958;2022-09-09T00:13:37;97689.63;;;20.12;99.09
61035;BME280;46916;40.564;-7.958;2022-09-09T00:20:20;97694.94;;;20.12;99.08
61035;BME280;46916;40.564;-7.958;2022-09-09T00:22:25;97685.31;;;20.11;99.12
61035;BME280;46916;40.564;-7.958;2022-09-09T00:24:34;97694.31;;;20.10;98.96
61035;BME280;46916;40.564;-7.958;2022-09-09T00:28:48;97694.47;;;20.08;98.91
61035;BME280;46916;40.564;-7.958;2022-09-09T00:30:52;97693.50;;;20.09;99.15
61035;BME280;46916;40.564;-7.958;2022-09-09T00:33:00;97691.66;;;20.10;99.55
61035;BME280;46916;40.564;-7.958;2022-09-09T00:37:20;97689.00;;;20.10;99.05
61035;BME280;46916;40.564;-7.958;2022-09-09T00:39:36;97686.50;;;20.08;99.57
61035;BME280;46916;40.564;-7.958;2022-09-09T00:44:16;97671.91;;;20.04;99.63
61035;BME280;46916;40.564;-7.958;2022-09-09T00:51:00;97665.63;;;20.05;99.63
61035;BME280;46916;40.564;-7.958;2022-09-09T00:55:21;97665.41;;;20.07;99.66
61035;BME280;46916;40.564;-7.958;2022-09-09T00:57:35;97656.63;;;20.06;99.77
61035;BME280;46916;40.564;-7.958;2022-09-09T00:59:52;97669.91;;;20.06;99.60
61035;BME280;46916;40.564;-7.958;2022-09-09T01:01:53;97664.78;;;20.04;99.91
61035;BME280;46916;40.564;-7.958;2022-09-09T01:03:56;97657.63;;;20.05;99.94
61035;BME280;46916;40.564;-7.958;2022-09-09T01:08:28;97664.59;;;20.06;99.66
61035;BME280;46916;40.564;-7.958;2022-09-09T01:10:44;97664.78;;;20.04;99.59
61035;BME280;46916;40.564;-7.958;2022-09-09T01:12:51;97655.16;;;20.03;100.00
61035;BME280;46916;40.564;-7.958;2022-09-09T01:15:10;97658.63;;;20.04;99.67
61035;BME280;46916;40.564;-7.958;2022-09-09T01:17:24;97645.53;;;20.02;99.97
61035;BME280;46916;40.564;-7.958;2022-09-09T01:21:52;97661.47;;;20.02;100.00
61035;BME280;46916;40.564;-7.958;2022-09-09T01:26:43;97658.00;;;20.02;100.00
61035;BME280;46916;40.564;-7.958;2022-09-09T01:28:53;97658.81;;;20.02;100.00
61035;BME280;46916;40.564;-7.958;2022-09-09T01:31:00;97663.31;;;20.02;100.00
61035;BME280;46916;40.564;-7.958;2022-09-09T01:33:17;97654.31;;;20.03;99.67
61035;BME280;46916;40.564;-7.958;2022-09-09T01:37:36;97662.50;;;20.01;100.00
61035;BME280;46916;40.564;-7.958;2022-09-09T01:39:38;97653.69;;;20.01;100.00
61035;BME280;46916;40.564;-7.958;2022-09-09T01:41:44;97661.69;;;20.01;99.98
61035;BME280;46916;40.564;-7.958;2022-09-09T01:43:47;97657.19;;;20.01;99.76
61035;BME280;46916;40.564;-7.958;2022-09-09T01:45:52;97657.81;;;20.03;99.76
61035;BME280;46916;40.564;-7.958;2022-09-09T01:47:55;97666.59;;;20.04;99.30
61035;BME280;46916;40.564;-7.958;2022-09-09T01:50:15;97659.66;;;20.03;99.29
61035;BME280;46916;40.564;-7.958;2022-09-09T01:52:16;97664.97;;;20.03;99.38
61035;BME280;46916;40.564;-7.958;2022-09-09T01:54:18;97662.50;;;20.01;99.34
61035;BME280;46916;40.564;-7.958;2022-09-09T01:59:18;97663.31;;;20.02;99.82
61035;BME280;46916;40.564;-7.958;2022-09-09T02:03:35;97659.84;;;20.01;99.67
61035;BME280;46916;40.564;-7.958;2022-09-09T02:06:00;97655.53;;;20.00;99.64
61035;BME280;46916;40.564;-7.958;2022-09-09T02:08:08;97656.34;;;20.01;99.59
61035;BME280;46916;40.564;-7.958;2022-09-09T02:10:22;97652.88;;;20.00;99.76
61035;BME280;46916;40.564;-7.958;2022-09-09T02:12:41;97656.34;;;20.01;99.77
61035;BME280;46916;40.564;-7.958;2022-09-09T02:14:50;97655.53;;;20.00;99.70
61035;BME280;46916;40.564;-7.958;2022-09-09T02:17:01;97650.22;;;20.00;99.54
61035;BME280;46916;40.564;-7.958;2022-09-09T02:19:24;97650.84;;;20.02;99.93
61035;BME280;46916;40.564;-7.958;2022-09-09T02:21:35;97656.16;;;20.02;99.65
61035;BME280;46916;40.564;-7.958;2022-09-09T02:23:39;97654.53;;;20.01;99.55
61035;BME280;46916;40.564;-7.958;2022-09-09T02:25:44;97653.88;;;19.99;99.86
61035;BME280;46916;40.564;-7.958;2022-09-09T02:27:56;97655.91;;;19.97;99.37
61035;BME280;46916;40.564;-7.958;2022-09-09T02:30:00;97652.41;;;19.97;99.14
61035;BME280;46916;40.564;-7.958;2022-09-09T02:32:22;97653.25;;;19.97;98.59
61035;BME280;46916;40.564;-7.958;2022-09-09T02:34:26;97662.84;;;19.98;98.21
61035;BME280;46916;40.564;-7.958;2022-09-09T02:36:31;97655.06;;;19.97;98.01
61035;BME280;46916;40.564;-7.958;2022-09-09T02:38:38;97658.56;;;19.97;97.78
61035;BME280;46916;40.564;-7.958;2022-09-09T02:40:45;97655.91;;;19.97;97.33
61035;BME280;46916;40.564;-7.958;2022-09-09T02:42:48;97659.56;;;19.96;97.30
61035;BME280;46916;40.564;-7.958;2022-09-09T02:44:49;97654.41;;;19.95;97.32
61035;BME280;46916;40.564;-7.958;2022-09-09T02:49:04;97653.13;;;19.91;96.98
61035;BME280;46916;40.564;-7.958;2022-09-09T02:53:18;97651.69;;;19.88;97.34
61035;BME280;46916;40.564;-7.958;2022-09-09T02:57:45;97653.34;;;19.89;97.57
61035;BME280;46916;40.564;-7.958;2022-09-09T02:59:50;97652.50;;;19.89;97.59
61035;BME280;46916;40.564;-7.958;2022-09-09T03:01:53;97643.72;;;19.88;97.05
61035;BME280;46916;40.564;-7.958;2022-09-09T03:03:54;97640.41;;;19.86;97.12
61035;BME280;46916;40.564;-7.958;2022-09-09T03:05:55;97643.06;;;19.86;97.37
61035;BME280;46916;40.564;-7.958;2022-09-09T03:07:57;97645.72;;;19.86;97.37
61035;BME280;46916;40.564;-7.958;2022-09-09T03:09:58;97631.97;;;19.83;97.47
61035;BME280;46916;40.564;-7.958;2022-09-09T03:12:01;97646.06;;;19.83;97.84
61035;BME280;46916;40.564;-7.958;2022-09-09T03:14:04;97628.84;;;19.79;97.81
61035;BME280;46916;40.564;-7.958;2022-09-09T03:16:06;97635.84;;;19.80;97.93
61035;BME280;46916;40.564;-7.958;2022-09-09T03:18:12;97639.31;;;19.81;98.10
61035;BME280;46916;40.564;-7.958;2022-09-09T03:20:13;97636.66;;;19.81;98.18
61035;BME280;46916;40.564;-7.958;2022-09-09T03:22:14;97630.69;;;19.78;98.50
61035;BME280;46916;40.564;-7.958;2022-09-09T03:24:17;97627.88;;;19.80;98.46
61035;BME280;46916;40.564;-7.958;2022-09-09T03:26:18;97627.88;;;19.80;98.72
61035;BME280;46916;40.564;-7.958;2022-09-09T03:28:21;97623.72;;;19.77;98.91
61035;BME280;46916;40.564;-7.958;2022-09-09T03:30:25;97631.91;;;19.76;99.13
61035;BME280;46916;40.564;-7.958;2022-09-09T03:32:28;97631.22;;;19.74;98.83
61035;BME280;46916;40.564;-7.958;2022-09-09T03:34:30;97631.91;;;19.76;98.72
61035;BME280;46916;40.564;-7.958;2022-09-09T03:36:32;97635.53;;;19.75;98.67
61035;BME280;46916;40.564;-7.958;2022-09-09T03:38:33;97636.34;;;19.75;98.62
61035;BME280;46916;40.564;-7.958;2022-09-09T03:40:34;97636.34;;;19.75;98.65
61035;BME280;46916;40.564;-7.958;2022-09-09T03:42:37;97635.53;;;19.75;98.94
61035;BME280;46916;40.564;-7.958;2022-09-09T03:44:38;97636.56;;;19.74;99.03
61035;BME280;46916;40.564;-7.958;2022-09-09T03:46:38;97638.56;;;19.72;98.72
61035;BME280;46916;40.564;-7.958;2022-09-09T03:48:39;97635.06;;;19.71;98.92
61035;BME280;46916;40.564;-7.958;2022-09-09T03:50:47;97639.41;;;19.72;99.30
61035;BME280;46916;40.564;-7.958;2022-09-09T03:52:48;97644.53;;;19.74;98.80
61035;BME280;46916;40.564;-7.958;2022-09-09T03:54:54;97637.72;;;19.71;98.88
61035;BME280;46916;40.564;-7.958;2022-09-09T03:56:57;97641.88;;;19.74;98.76
61035;BME280;46916;40.564;-7.958;2022-09-09T03:58:58;97643.34;;;19.76;98.56
61035;BME280;46916;40.564;-7.958;2022-09-09T04:01:06;97635.38;;;19.76;98.52
61035;BME280;46916;40.564;-7.958;2022-09-09T04:03:09;97631.69;;;19.77;98.31
61035;BME280;46916;40.564;-7.958;2022-09-09T04:05:10;97637.00;;;19.77;98.50
61035;BME280;46916;40.564;-7.958;2022-09-09T04:07:13;97631.50;;;19.79;98.31
61035;BME280;46916;40.564;-7.958;2022-09-09T04:09:14;97627.22;;;19.78;98.16
61035;BME280;46916;40.564;-7.958;2022-09-09T04:11:16;97626.19;;;19.79;98.29
61035;BME280;46916;40.564;-7.958;2022-09-09T04:13:19;97622.72;;;19.78;97.92
61035;BME280;46916;40.564;-7.958;2022-09-09T04:15:21;97625.38;;;19.78;98.06
61035;BME280;46916;40.564;-7.958;2022-09-09T04:17:22;97633.19;;;19.80;97.96
61035;BME280;46916;40.564;-7.958;2022-09-09T04:19:23;97634.16;;;19.79;97.76
61035;BME280;46916;40.564;-7.958;2022-09-09T04:21:24;97637.00;;;19.77;97.88
61035;BME280;46916;40.564;-7.958;2022-09-09T04:23:26;97637.38;;;19.74;98.17
61035;BME280;46916;40.564;-7.958;2022-09-09T04:25:31;97633.06;;;19.73;98.32
61035;BME280;46916;40.564;-7.958;2022-09-09T04:27:32;97637.91;;;19.70;98.38
61035;BME280;46916;40.564;-7.958;2022-09-09T04:29:32;97631.78;;;19.69;98.67
61035;BME280;46916;40.564;-7.958;2022-09-09T04:31:34;97635.47;;;19.68;98.58
61035;BME280;46916;40.564;-7.958;2022-09-09T04:33:35;97634.44;;;19.69;98.61
61035;BME280;46916;40.564;-7.958;2022-09-09T04:35:37;97640.94;;;19.67;98.50
61035;BME280;46916;40.564;-7.958;2022-09-09T04:37:38;97640.94;;;19.67;98.72
61035;BME280;46916;40.564;-7.958;2022-09-09T04:39:39;97628.84;;;19.64;98.68
61035;BME280;46916;40.564;-7.958;2022-09-09T04:41:40;97633.78;;;19.67;98.63
61035;BME280;46916;40.564;-7.958;2022-09-09T04:43:43;97632.97;;;19.67;98.85
61035;BME280;46916;40.564;-7.958;2022-09-09T04:45:49;97636.28;;;19.69;98.77
61035;BME280;46916;40.564;-7.958;2022-09-09T04:47:54;97645.06;;;19.69;98.73
61035;BME280;46916;40.564;-7.958;2022-09-09T04:49:55;97636.28;;;19.69;98.14
61035;BME280;46916;40.564;-7.958;2022-09-09T04:51:58;97635.25;;;19.70;98.27
61035;BME280;46916;40.564;-7.958;2022-09-09T04:53:58;97637.47;;;19.66;97.98
61035;BME280;46916;40.564;-7.958;2022-09-09T04:56:13;97641.59;;;19.69;98.10
61035;BME280;46916;40.564;-7.958;2022-09-09T04:58:30;97642.59;;;19.68;97.66
61035;BME280;46916;40.564;-7.958;2022-09-09T05:00:31;97643.44;;;19.68;97.68
61035;BME280;46916;40.564;-7.958;2022-09-09T05:02:31;97642.59;;;19.68;97.43
61035;BME280;46916;40.564;-7.958;2022-09-09T05:04:32;97643.44;;;19.68;97.25
61035;BME280;46916;40.564;-7.958;2022-09-09T05:06:34;97644.25;;;19.69;97.28
61035;BME280;46916;40.564;-7.958;2022-09-09T05:08:40;97645.28;;;19.68;97.55
61035;BME280;46916;40.564;-7.958;2022-09-09T05:10:42;97641.13;;;19.65;97.40
61035;BME280;46916;40.564;-7.958;2022-09-09T05:12:51;97646.63;;;19.64;97.76
61035;BME280;46916;40.564;-7.958;2022-09-09T05:14:53;97650.28;;;19.63;97.79
61035;BME280;46916;40.564;-7.958;2022-09-09T05:16:54;97645.16;;;19.61;97.62
61035;BME280;46916;40.564;-7.958;2022-09-09T05:18:56;97646.13;;;19.60;97.85
61035;BME280;46916;40.564;-7.958;2022-09-09T05:21:01;97647.97;;;19.60;97.85
61035;BME280;46916;40.564;-7.958;2022-09-09T05:23:02;97662.25;;;19.59;97.88
61035;BME280;46916;40.564;-7.958;2022-09-09T05:25:05;97657.94;;;19.58;97.74
61035;BME280;46916;40.564;-7.958;2022-09-09T05:27:05;97651.81;;;19.57;97.94
61035;BME280;46916;40.564;-7.958;2022-09-09T05:29:07;97650.16;;;19.56;98.11
61035;BME280;46916;40.564;-7.958;2022-09-09T05:31:09;97649.97;;;19.58;97.65
61035;BME280;46916;40.564;-7.958;2022-09-09T05:33:13;97647.31;;;19.58;98.07
61035;BME280;46916;40.564;-7.958;2022-09-09T05:35:14;97646.50;;;19.57;97.86
61035;BME280;46916;40.564;-7.958;2022-09-09T05:37:15;97655.47;;;19.56;97.79
61035;BME280;46916;40.564;-7.958;2022-09-09T05:39:17;97657.47;;;19.54;97.91
61035;BME280;46916;40.564;-7.958;2022-09-09T05:41:19;97654.81;;;19.54;97.93
61035;BME280;46916;40.564;-7.958;2022-09-09T05:43:21;97651.53;;;19.52;97.66
61035;BME280;46916;40.564;-7.958;2022-09-09T05:45:22;97659.31;;;19.53;97.74
61035;BME280;46916;40.564;-7.958;2022-09-09T05:47:23;97654.81;;;19.54;97.54
61035;BME280;46916;40.564;-7.958;2022-09-09T05:49:24;97655.63;;;19.54;97.37
61035;BME280;46916;40.564;-7.958;2022-09-09T05:51:27;97655.63;;;19.54;97.27
61035;BME280;46916;40.564;-7.958;2022-09-09T05:53:31;97660.13;;;19.54;97.62
61035;BME280;46916;40.564;-7.958;2022-09-09T05:55:33;97651.16;;;19.55;97.42
61035;BME280;46916;40.564;-7.958;2022-09-09T05:57:34;97665.91;;;19.58;97.29
61035;BME280;46916;40.564;-7.958;2022-09-09T05:59:35;97664.06;;;19.58;96.72
61035;BME280;46916;40.564;-7.958;2022-09-09T06:01:37;97664.91;;;19.59;96.77
61035;BME280;46916;40.564;-7.958;2022-09-09T06:03:44;97667.41;;;19.60;96.66
61035;BME280;46916;40.564;-7.958;2022-09-09T06:18:45;97672.00;;;19.66;97.17
61035;BME280;46916;40.564;-7.958;2022-09-09T06:20:58;97667.03;;;19.63;96.85
61035;BME280;46916;40.564;-7.958;2022-09-09T06:23:01;97681.19;;;19.64;96.30
61035;BME280;46916;40.564;-7.958;2022-09-09T06:25:02;97673.22;;;19.64;95.97
61035;BME280;46916;40.564;-7.958;2022-09-09T06:27:03;97678.31;;;19.65;95.70
61035;BME280;46916;40.564;-7.958;2022-09-09T06:29:08;97680.97;;;19.65;95.76
61035;BME280;46916;40.564;-7.958;2022-09-09T06:31:10;97684.47;;;19.66;95.73
61035;BME280;46916;40.564;-7.958;2022-09-09T06:33:12;97673.00;;;19.65;95.36
61035;BME280;46916;40.564;-7.958;2022-09-09T06:35:13;97679.69;;;19.61;95.86
61035;BME280;46916;40.564;-7.958;2022-09-09T06:37:14;97673.38;;;19.62;96.00
61035;BME280;46916;40.564;-7.958;2022-09-09T06:39:20;97674.38;;;19.61;95.96
61035;BME280;46916;40.564;-7.958;2022-09-09T06:41:23;97678.84;;;19.61;96.29
61035;BME280;46916;40.564;-7.958;2022-09-09T06:43:25;97677.84;;;19.62;96.14
61035;BME280;46916;40.564;-7.958;2022-09-09T06:45:28;97679.69;;;19.61;96.01
61035;BME280;46916;40.564;-7.958;2022-09-09T06:47:32;97684.16;;;19.61;95.97
61035;BME280;46916;40.564;-7.958;2022-09-09T06:49:34;97686.00;;;19.60;96.05
61035;BME280;46916;40.564;-7.958;2022-09-09T06:51:38;97685.16;;;19.60;96.12
61035;BME280;46916;40.564;-7.958;2022-09-09T06:53:45;97686.00;;;19.60;96.19
61035;BME280;46916;40.564;-7.958;2022-09-09T06:55:48;97688.81;;;19.59;96.34
61035;BME280;46916;40.564;-7.958;2022-09-09T06:57:49;97685.16;;;19.60;95.99
61035;BME280;46916;40.564;-7.958;2022-09-09T06:59:56;97686.53;;;19.55;96.15
61035;BME280;46916;40.564;-7.958;2022-09-09T07:01:57;97695.31;;;19.56;96.13
61035;BME280;46916;40.564;-7.958;2022-09-09T07:03:59;97698.81;;;19.57;96.03
61035;BME280;46916;40.564;-7.958;2022-09-09T07:06:01;97695.13;;;19.58;96.08
61035;BME280;46916;40.564;-7.958;2022-09-09T07:08:04;97701.09;;;19.60;95.88
61035;BME280;46916;40.564;-7.958;2022-09-09T07:10:06;97708.91;;;19.61;95.68
61035;BME280;46916;40.564;-7.958;2022-09-09T07:12:09;97714.88;;;19.63;95.76
61035;BME280;46916;40.564;-7.958;2022-09-09T07:14:17;97722.66;;;19.65;95.55
61035;BME280;46916;40.564;-7.958;2022-09-09T07:16:22;97718.19;;;19.65;95.69
61035;BME280;46916;40.564;-7.958;2022-09-09T07:18:25;97723.50;;;19.65;95.24
61035;BME280;46916;40.564;-7.958;2022-09-09T07:20:26;97729.63;;;19.66;95.14
61035;BME280;46916;40.564;-7.958;2022-09-09T07:22:27;97727.16;;;19.64;95.40
61035;BME280;46916;40.564;-7.958;2022-09-09T07:24:28;97732.47;;;19.64;95.61
61035;BME280;46916;40.564;-7.958;2022-09-09T07:26:30;97727.97;;;19.65;95.45
61035;BME280;46916;40.564;-7.958;2022-09-09T07:28:33;97732.28;;;19.66;95.55
61035;BME280;46916;40.564;-7.958;2022-09-09T07:30:35;97735.59;;;19.68;94.69
61035;BME280;46916;40.564;-7.958;2022-09-09T07:32:36;97734.25;;;19.72;93.56
61035;BME280;46916;40.564;-7.958;2022-09-09T07:34:37;97736.50;;;19.75;93.48
61035;BME280;46916;40.564;-7.958;2022-09-09T07:36:39;97742.28;;;19.78;92.97
61035;BME280;46916;40.564;-7.958;2022-09-09T07:38:44;97739.47;;;19.80;92.95
61035;BME280;46916;40.564;-7.958;2022-09-09T07:40:46;97730.50;;;19.81;93.16
61035;BME280;46916;40.564;-7.958;2022-09-09T07:42:47;97740.09;;;19.82;92.92
61035;BME280;46916;40.564;-7.958;2022-09-09T07:44:48;97734.59;;;19.84;92.86
61035;BME280;46916;40.564;-7.958;2022-09-09T07:46:50;97733.78;;;19.83;93.36
61035;BME280;46916;40.564;-7.958;2022-09-09T07:48:56;97730.50;;;19.81;93.55
61035;BME280;46916;40.564;-7.958;2022-09-09T07:51:11;97730.84;;;19.78;93.74
61035;BME280;46916;40.564;-7.958;2022-09-09T07:53:12;97734.31;;;19.78;93.56
61035;BME280;46916;40.564;-7.958;2022-09-09T07:55:13;97733.69;;;19.76;93.85
61035;BME280;46916;40.564;-7.958;2022-09-09T07:57:14;97741.47;;;19.78;93.54
61035;BME280;46916;40.564;-7.958;2022-09-09T07:59:16;97735.34;;;19.77;93.31
61035;BME280;46916;40.564;-7.958;2022-09-09T08:01:24;97733.31;;;19.79;93.83
61035;BME280;46916;40.564;-7.958;2022-09-09T08:03:25;97738.81;;;19.78;93.56
61035;BME280;46916;40.564;-7.958;2022-09-09T08:05:26;97738.81;;;19.78;93.59
61035;BME280;46916;40.564;-7.958;2022-09-09T08:07:27;97735.34;;;19.77;93.38
61035;BME280;46916;40.564;-7.958;2022-09-09T08:09:29;97739.84;;;19.77;93.32
61035;BME280;46916;40.564;-7.958;2022-09-09T08:11:37;97743.13;;;19.79;93.23
61035;BME280;46916;40.564;-7.958;2022-09-09T08:13:39;97740.09;;;19.82;93.11
61035;BME280;46916;40.564;-7.958;2022-09-09T08:15:40;97746.09;;;19.84;93.16
61035;BME280;46916;40.564;-7.958;2022-09-09T08:17:42;97741.41;;;19.86;93.53
61035;BME280;46916;40.564;-7.958;2022-09-09T08:19:44;97740.38;;;19.87;93.47
61035;BME280;46916;40.564;-7.958;2022-09-09T08:21:50;97742.06;;;19.88;93.29
61035;BME280;46916;40.564;-7.958;2022-09-09T08:23:52;97747.38;;;19.88;93.52
61035;BME280;46916;40.564;-7.958;2022-09-09T08:25:53;97736.81;;;19.80;93.69
61035;BME280;46916;40.564;-7.958;2022-09-09T08:27:54;97747.53;;;19.72;94.56
61035;BME280;46916;40.564;-7.958;2022-09-09T08:29:56;97741.44;;;19.63;95.18
61035;BME280;46916;40.564;-7.958;2022-09-09T08:31:58;97751.06;;;19.64;95.30
61035;BME280;46916;40.564;-7.958;2022-09-09T08:34:02;97749.88;;;19.67;95.51
61035;BME280;46916;40.564;-7.958;2022-09-09T08:36:05;97757.31;;;19.71;95.38
61035;BME280;46916;40.564;-7.958;2022-09-09T08:38:07;97748.16;;;19.74;94.85
61035;BME280;46916;40.564;-7.958;2022-09-09T08:40:26;97753.28;;;19.75;94.75
61035;BME280;46916;40.564;-7.958;2022-09-09T08:42:40;97760.28;;;19.76;94.78
61035;BME280;46916;40.564;-7.958;2022-09-09T08:51:48;97763.13;;;19.90;92.19
61035;BME280;46916;40.564;-7.958;2022-09-09T08:53:50;97765.31;;;19.86;92.35
61035;BME280;46916;40.564;-7.958;2022-09-09T08:56:01;97769.47;;;19.89;91.99
61035;BME280;46916;40.564;-7.958;2022-09-09T08:58:19;97766.25;;;19.93;91.22
61035;BME280;46916;40.564;-7.958;2022-09-09T09:00:29;97761.88;;;20.00;90.82
61035;BME280;46916;40.564;-7.958;2022-09-09T09:05:38;97770.41;;;20.11;89.88
61035;BME280;46916;40.564;-7.958;2022-09-09T09:10:49;97777.19;;;20.13;89.85
61035;BME280;46916;40.564;-7.958;2022-09-09T09:12:57;97784.50;;;20.11;89.53
61035;BME280;46916;40.564;-7.958;2022-09-09T09:14:59;97783.34;;;20.14;88.95
61035;BME280;46916;40.564;-7.958;2022-09-09T09:17:06;97778.75;;;20.22;88.53
61035;BME280;46916;40.564;-7.958;2022-09-09T09:19:14;97777.84;;;20.30;88.06
61035;BME280;46916;40.564;-7.958;2022-09-09T09:23:47;97777.00;;;20.44;86.88
61035;BME280;46916;40.564;-7.958;2022-09-09T09:25:56;97773.81;;;20.49;86.57
61035;BME280;46916;40.564;-7.958;2022-09-09T09:28:26;97784.75;;;20.54;86.23
61035;BME280;46916;40.564;-7.958;2022-09-09T09:30:42;97784.38;;;20.57;85.86
61035;BME280;46916;40.564;-7.958;2022-09-09T09:32:55;97789.53;;;20.59;85.00
61035;BME280;46916;40.564;-7.958;2022-09-09T09:34:58;97779.50;;;20.61;84.50
61035;BME280;46916;40.564;-7.958;2022-09-09T09:37:02;97793.47;;;20.63;84.20
61035;BME280;46916;40.564;-7.958;2022-09-09T09:39:30;97791.84;;;20.62;84.48
61035;BME280;46916;40.564;-7.958;2022-09-09T09:41:36;97789.69;;;20.57;83.74
61035;BME280;46916;40.564;-7.958;2022-09-09T09:43:40;97798.06;;;20.54;84.08
61035;BME280;46916;40.564;-7.958;2022-09-09T09:45:47;97797.41;;;20.52;84.15
61035;BME280;46916;40.564;-7.958;2022-09-09T09:48:03;97801.56;;;20.55;84.49
61035;BME280;46916;40.564;-7.958;2022-09-09T09:50:17;97803.84;;;20.58;84.47
61035;BME280;46916;40.564;-7.958;2022-09-09T09:52:37;97802.47;;;20.62;84.40
61035;BME280;46916;40.564;-7.958;2022-09-09T09:54:41;97805.41;;;20.67;84.53
61035;BME280;46916;40.564;-7.958;2022-09-09T09:56:43;97798.59;;;20.79;84.30
61035;BME280;46916;40.564;-7.958;2022-09-09T10:00:52;97796.75;;;20.94;83.23
61035;BME280;46916;40.564;-7.958;2022-09-09T10:02:55;97798.19;;;20.97;83.39
61035;BME280;46916;40.564;-7.958;2022-09-09T10:05:13;97798.03;;;20.98;82.95
61035;BME280;46916;40.564;-7.958;2022-09-09T10:07:20;97795.38;;;20.98;82.45
61035;BME280;46916;40.564;-7.958;2022-09-09T10:09:26;97792.69;;;20.98;82.16
61035;BME280;46916;40.564;-7.958;2022-09-09T10:11:46;97805.00;;;20.99;81.49
61035;BME280;46916;40.564;-7.958;2022-09-09T10:18:39;97806.00;;;20.98;81.81
61035;BME280;46916;40.564;-7.958;2022-09-09T10:23:36;97802.13;;;21.01;81.99
61035;BME280;46916;40.564;-7.958;2022-09-09T10:26:08;97804.22;;;21.06;82.20
61035;BME280;46916;40.564;-7.958;2022-09-09T10:38:15;97802.81;;;21.24;81.08
61035;BME280;46916;40.564;-7.958;2022-09-09T10:40:33;97801.91;;;21.32;80.75
61035;BME280;46916;40.564;-7.958;2022-09-09T10:42:34;97802.97;;;21.38;80.27
61035;BME280;46916;40.564;-7.958;2022-09-09T10:47:07;97801.47;;;21.50;79.22
61035;BME280;46916;40.564;-7.958;2022-09-09T10:53:35;97804.44;;;21.62;78.82
61035;BME280;46916;40.564;-7.958;2022-09-09T10:55:41;97802.44;;;21.64;78.19
61035;BME280;46916;40.564;-7.958;2022-09-09T10:57:54;97797.94;;;21.64;78.10
61035;BME280;46916;40.564;-7.958;2022-09-09T10:59:59;97797.53;;;21.67;77.69
61035;BME280;46916;40.564;-7.958;2022-09-09T11:02:28;97790.75;;;21.65;77.01
61035;BME280;46916;40.564;-7.958;2022-09-09T11:06:48;97797.72;;;21.66;76.10
61035;BME280;46916;40.564;-7.958;2022-09-09T11:08:52;97792.03;;;21.69;76.44
61035;BME280;46916;40.564;-7.958;2022-09-09T11:13:03;97787.97;;;21.73;76.43
61035;BME280;46916;40.564;-7.958;2022-09-09T11:17:19;97793.47;;;21.71;75.17
61035;BME280;46916;40.564;-7.958;2022-09-09T11:19:30;97780.56;;;21.75;72.98
61035;BME280;46916;40.564;-7.958;2022-09-09T11:21:46;97786.94;;;21.74;72.99
61035;BME280;46916;40.564;-7.958;2022-09-09T11:23:55;97777.53;;;21.78;73.78
61035;BME280;46916;40.564;-7.958;2022-09-09T11:26:01;97769.97;;;21.82;74.08
61035;BME280;46916;40.564;-7.958;2022-09-09T11:30:49;97769.25;;;21.94;74.24
61035;BME280;46916;40.564;-7.958;2022-09-09T11:33:06;97767.84;;;21.98;73.38
61035;BME280;46916;40.564;-7.958;2022-09-09T11:42:39;97755.50;;;22.19;71.90
61035;BME280;46916;40.564;-7.958;2022-09-09T11:44:40;97758.22;;;22.25;72.11
61035;BME280;46916;40.564;-7.958;2022-09-09T11:46:43;97758.47;;;22.31;72.22
61035;BME280;46916;40.564;-7.958;2022-09-09T11:49:00;97757.66;;;22.37;72.55
61035;BME280;46916;40.564;-7.958;2022-09-09T11:53:15;97753.19;;;22.44;71.87
61035;BME280;46916;40.564;-7.958;2022-09-09T11:55:34;97748.06;;;22.49;71.82
61035;BME280;46916;40.564;-7.958;2022-09-09T11:57:37;97743.16;;;22.53;71.03
61035;BME280;46916;40.564;-7.958;2022-09-09T11:59:38;97743.59;;;22.56;71.19
61035;BME280;46916;40.564;-7.958;2022-09-09T12:01:41;97740.53;;;22.59;70.56
61035;BME280;46916;40.564;-7.958;2022-09-09T12:03:52;97743.63;;;22.63;70.20
61035;BME280;46916;40.564;-7.958;2022-09-09T12:05:57;97750.63;;;22.64;69.80
61035;BME280;46916;40.564;-7.958;2022-09-09T12:07:59;97743.03;;;22.67;70.00
61035;BME280;46916;40.564;-7.958;2022-09-09T12:10:20;97740.81;;;22.71;70.00
61035;BME280;46916;40.564;-7.958;2022-09-09T12:12:29;97731.75;;;22.72;69.86
61035;BME280;46916;40.564;-7.958;2022-09-09T12:14:42;97728.69;;;22.75;69.85
61035;BME280;46916;40.564;-7.958;2022-09-09T12:16:46;97732.63;;;22.79;69.44
61035;BME280;46916;40.564;-7.958;2022-09-09T12:18:47;97724.22;;;22.82;69.07
61035;BME280;46916;40.564;-7.958;2022-09-09T12:28:01;97722.44;;;22.96;64.94
61035;BME280;46916;40.564;-7.958;2022-09-09T12:30:10;97717.50;;;22.99;65.27
61035;BME280;46916;40.564;-7.958;2022-09-09T12:32:23;97721.41;;;23.04;65.29
61035;BME280;46916;40.564;-7.958;2022-09-09T12:34:49;97723.47;;;23.08;64.56
61035;BME280;46916;40.564;-7.958;2022-09-09T12:36:58;97722.28;;;23.11;63.72
61035;BME280;46916;40.564;-7.958;2022-09-09T12:39:16;97714.47;;;23.16;62.81
61035;BME280;46916;40.564;-7.958;2022-09-09T12:41:23;97715.69;;;23.20;61.63
61035;BME280;46916;40.564;-7.958;2022-09-09T12:43:26;97711.38;;;23.26;61.77
61035;BME280;46916;40.564;-7.958;2022-09-09T12:45:30;97712.63;;;23.30;61.25
61035;BME280;46916;40.564;-7.958;2022-09-09T12:48:03;97711.00;;;23.35;56.04
61035;BME280;46916;40.564;-7.958;2022-09-09T12:50:01;97708.72;;;23.45;54.82
61035;BME280;46916;40.564;-7.958;2022-09-09T12:52:04;97701.72;;;23.51;55.95
61035;BME280;46916;40.564;-7.958;2022-09-09T12:54:12;97698.25;;;23.57;56.61
61035;BME280;46916;40.564;-7.958;2022-09-09T12:56:26;97696.59;;;23.63;56.33
61035;BME280;46916;40.564;-7.958;2022-09-09T12:58:28;97702.38;;;23.66;56.41
61035;BME280;46916;40.564;-7.958;2022-09-09T13:00:33;97704.44;;;23.71;56.85